sensor_id;sensor_type;location;lat;lon;timestamp;pressure;altitude;pressure_sealevel;temperature;humidity
61898;BME280;47850;50.274;18.908;2023-03-31T00:00:53;97336.99;;;7.90;88.56
61898;BME280;47850;50.274;18.908;2023-03-31T00:03:24;97337.99;;;7.90;88.59
61898;BME280;47850;50.274;18.908;2023-03-31T00:05:56;97336.88;;;7.89;88.56
61898;BME280;47850;50.274;18.908;2023-03-31T00:08:26;97335.51;;;7.89;88.54
61898;BME280;47850;50.274;18.908;2023-03-31T00:10:58;97337.00;;;7.90;88.32
61898;BME280;47850;50.274;18.908;2023-03-31T00:13:29;97335.28;;;7.90;88.31
61898;BME280;47850;50.274;18.908;2023-03-31T00:16:00;97333.99;;;7.90;88.24
61898;BME280;47850;50.274;18.908;2023-03-31T00:18:28;97333.45;;;7.90;88.26
61898;BME280;47850;50.274;18.908;2023-03-31T00:21:10;97328.06;;;7.90;88.41
61898;BME280;47850;50.274;18.908;2023-03-31T00:23:41;97330.48;;;7.88;88.38
61898;BME280;47850;50.274;18.908;2023-03-31T00:26:09;97330.17;;;7.87;88.38
61898;BME280;47850;50.274;18.908;2023-03-31T00:28:36;97332.67;;;7.85;88.23
61898;BME280;47850;50.274;18.908;2023-03-31T00:31:04;97332.52;;;7.83;88.31
61898;BME280;47850;50.274;18.908;2023-03-31T00:33:32;97338.65;;;7.81;88.22
61898;BME280;47850;50.274;18.908;2023-03-31T00:36:00;97336.08;;;7.79;88.25
61898;BME280;47850;50.274;18.908;2023-03-31T00:38:28;97335.27;;;7.78;88.29
61898;BME280;47850;50.274;18.908;2023-03-31T00:40:58;97330.83;;;7.78;88.21
61898;BME280;47850;50.274;18.908;2023-03-31T00:48:47;97331.60;;;7.74;88.20
61898;BME280;47850;50.274;18.908;2023-03-31T00:51:17;97330.58;;;7.72;88.28
61898;BME280;47850;50.274;18.908;2023-03-31T00:53:51;97329.78;;;7.70;88.15
61898;BME280;47850;50.274;18.908;2023-03-31T00:56:25;97331.66;;;7.67;88.11
61898;BME280;47850;50.274;18.908;2023-03-31T00:59:00;97329.95;;;7.65;88.23
61898;BME280;47850;50.274;18.908;2023-03-31T01:01:29;97332.40;;;7.62;88.19
61898;BME280;47850;50.274;18.908;2023-03-31T01:03:58;97330.73;;;7.60;88.19
61898;BME280;47850;50.274;18.908;2023-03-31T01:06:25;97330.59;;;7.58;88.12
61898;BME280;47850;50.274;18.908;2023-03-31T01:08:57;97331.13;;;7.56;88.04
61898;BME280;47850;50.274;18.908;2023-03-31T01:11:27;97321.21;;;7.55;88.04
61898;BME280;47850;50.274;18.908;2023-03-31T01:13:57;97315.33;;;7.53;87.97
61898;BME280;47850;50.274;18.908;2023-03-31T01:16:25;97311.02;;;7.50;88.12
61898;BME280;47850;50.274;18.908;2023-03-31T01:18:53;97313.45;;;7.47;88.08
61898;BME280;47850;50.274;18.908;2023-03-31T01:43:22;97308.98;;;7.15;88.91
61898;BME280;47850;50.274;18.908;2023-03-31T01:51:32;97316.21;;;7.09;89.21
61898;BME280;47850;50.274;18.908;2023-03-31T01:56:57;97313.75;;;7.06;89.40
61898;BME280;47850;50.274;18.908;2023-03-31T01:59:39;97314.08;;;7.06;89.21
61898;BME280;47850;50.274;18.908;2023-03-31T02:02:18;97315.48;;;7.06;89.17
61898;BME280;47850;50.274;18.908;2023-03-31T02:04:59;97315.10;;;7.06;89.22
61898;BME280;47850;50.274;18.908;2023-03-31T02:08:05;97315.64;;;7.06;89.27
61898;BME280;47850;50.274;18.908;2023-03-31T02:10:35;97312.36;;;7.06;89.25
61898;BME280;47850;50.274;18.908;2023-03-31T02:13:06;97309.56;;;7.04;89.17
61898;BME280;47850;50.274;18.908;2023-03-31T02:15:39;97311.06;;;7.02;89.19
61898;BME280;47850;50.274;18.908;2023-03-31T02:18:11;97310.98;;;7.02;88.98
61898;BME280;47850;50.274;18.908;2023-03-31T02:20:41;97306.55;;;7.02;89.08
61898;BME280;47850;50.274;18.908;2023-03-31T02:23:13;97305.84;;;7.02;88.97
61898;BME280;47850;50.274;18.908;2023-03-31T02:25:47;97305.91;;;7.01;89.04
61898;BME280;47850;50.274;18.908;2023-03-31T02:28:20;97304.09;;;7.01;88.85
61898;BME280;47850;50.274;18.908;2023-03-31T02:33:35;97305.29;;;7.00;89.01
61898;BME280;47850;50.274;18.908;2023-03-31T02:36:03;97303.35;;;7.00;88.92
61898;BME280;47850;50.274;18.908;2023-03-31T02:38:35;97304.93;;;6.99;88.91
61898;BME280;47850;50.274;18.908;2023-03-31T02:41:05;97302.65;;;6.98;88.83
61898;BME280;47850;50.274;18.908;2023-03-31T02:43:33;97298.76;;;6.97;88.85
61898;BME280;47850;50.274;18.908;2023-03-31T02:46:01;97298.77;;;6.97;88.87
61898;BME280;47850;50.274;18.908;2023-03-31T02:48:46;97296.51;;;6.96;88.91
61898;BME280;47850;50.274;18.908;2023-03-31T02:51:38;97299.44;;;6.96;88.73
61898;BME280;47850;50.274;18.908;2023-03-31T02:57:11;97293.48;;;6.94;88.62
61898;BME280;47850;50.274;18.908;2023-03-31T03:11:35;97299.54;;;6.91;88.41
61898;BME280;47850;50.274;18.908;2023-03-31T03:16:36;97292.01;;;6.87;88.52
61898;BME280;47850;50.274;18.908;2023-03-31T03:19:07;97289.65;;;6.86;88.41
61898;BME280;47850;50.274;18.908;2023-03-31T03:21:35;97288.79;;;6.86;88.52
61898;BME280;47850;50.274;18.908;2023-03-31T03:24:02;97285.89;;;6.85;88.40
61898;BME280;47850;50.274;18.908;2023-03-31T03:26:31;97285.25;;;6.85;88.46
61898;BME280;47850;50.274;18.908;2023-03-31T03:29:02;97279.15;;;6.84;88.39
61898;BME280;47850;50.274;18.908;2023-03-31T03:31:30;97280.15;;;6.81;88.56
61898;BME280;47850;50.274;18.908;2023-03-31T03:34:00;97276.60;;;6.80;88.69
61898;BME280;47850;50.274;18.908;2023-03-31T03:36:28;97279.50;;;6.79;88.62
61898;BME280;47850;50.274;18.908;2023-03-31T03:38:55;97279.15;;;6.79;88.71
61898;BME280;47850;50.274;18.908;2023-03-31T03:41:23;97281.44;;;6.78;88.75
61898;BME280;47850;50.274;18.908;2023-03-31T03:43:51;97279.02;;;6.77;88.74
61898;BME280;47850;50.274;18.908;2023-03-31T03:46:19;97273.06;;;6.77;88.66
61898;BME280;47850;50.274;18.908;2023-03-31T03:48:47;97271.75;;;6.77;88.60
61898;BME280;47850;50.274;18.908;2023-03-31T03:51:14;97266.90;;;6.76;88.65
61898;BME280;47850;50.274;18.908;2023-03-31T03:53:42;97265.37;;;6.77;88.69
61898;BME280;47850;50.274;18.908;2023-03-31T03:56:10;97264.13;;;6.77;88.71
61898;BME280;47850;50.274;18.908;2023-03-31T03:58:38;97262.91;;;6.76;88.71
61898;BME280;47850;50.274;18.908;2023-03-31T04:01:06;97264.00;;;6.76;88.58
61898;BME280;47850;50.274;18.908;2023-03-31T04:03:34;97260.20;;;6.74;88.63
61898;BME280;47850;50.274;18.908;2023-03-31T04:06:01;97259.54;;;6.73;88.57
61898;BME280;47850;50.274;18.908;2023-03-31T04:08:29;97257.52;;;6.71;88.76
61898;BME280;47850;50.274;18.908;2023-03-31T04:10:57;97254.33;;;6.69;88.62
61898;BME280;47850;50.274;18.908;2023-03-31T04:13:25;97252.60;;;6.67;88.59
61898;BME280;47850;50.274;18.908;2023-03-31T04:15:53;97257.75;;;6.65;88.80
61898;BME280;47850;50.274;18.908;2023-03-31T04:18:20;97257.18;;;6.62;88.84
61898;BME280;47850;50.274;18.908;2023-03-31T04:20:52;97254.92;;;6.60;88.86
61898;BME280;47850;50.274;18.908;2023-03-31T04:23:34;97249.48;;;6.57;88.91
61898;BME280;47850;50.274;18.908;2023-03-31T04:26:04;97245.24;;;6.53;89.03
61898;BME280;47850;50.274;18.908;2023-03-31T04:28:35;97243.96;;;6.51;89.07
61898;BME280;47850;50.274;18.908;2023-03-31T04:31:04;97247.85;;;6.48;89.17
61898;BME280;47850;50.274;18.908;2023-03-31T04:33:35;97245.59;;;6.45;89.29
61898;BME280;47850;50.274;18.908;2023-03-31T04:36:06;97246.65;;;6.42;89.15
61898;BME280;47850;50.274;18.908;2023-03-31T04:38:49;97239.70;;;6.39;89.36
61898;BME280;47850;50.274;18.908;2023-03-31T04:41:22;97242.20;;;6.36;89.43
61898;BME280;47850;50.274;18.908;2023-03-31T04:43:50;97243.95;;;6.34;89.49
61898;BME280;47850;50.274;18.908;2023-03-31T04:46:18;97237.32;;;6.31;89.50
61898;BME280;47850;50.274;18.908;2023-03-31T04:48:45;97233.08;;;6.30;89.52
61898;BME280;47850;50.274;18.908;2023-03-31T04:51:13;97229.19;;;6.28;89.67
61898;BME280;47850;50.274;18.908;2023-03-31T04:53:44;97225.27;;;6.27;89.66
61898;BME280;47850;50.274;18.908;2023-03-31T04:56:12;97225.36;;;6.25;89.75
61898;BME280;47850;50.274;18.908;2023-03-31T04:58:40;97219.98;;;6.26;89.71
61898;BME280;47850;50.274;18.908;2023-03-31T05:01:08;97220.55;;;6.27;89.66
61898;BME280;47850;50.274;18.908;2023-03-31T05:03:36;97220.35;;;6.28;89.94
61898;BME280;47850;50.274;18.908;2023-03-31T05:06:04;97214.01;;;6.29;89.75
61898;BME280;47850;50.274;18.908;2023-03-31T05:08:32;97212.50;;;6.30;89.69
61898;BME280;47850;50.274;18.908;2023-03-31T05:11:02;97210.36;;;6.31;89.67
61898;BME280;47850;50.274;18.908;2023-03-31T05:13:30;97211.65;;;6.31;89.61
61898;BME280;47850;50.274;18.908;2023-03-31T05:15:58;97206.98;;;6.32;89.62
61898;BME280;47850;50.274;18.908;2023-03-31T05:18:32;97204.52;;;6.34;89.46
61898;BME280;47850;50.274;18.908;2023-03-31T05:21:12;97208.75;;;6.36;89.33
61898;BME280;47850;50.274;18.908;2023-03-31T05:23:41;97215.62;;;6.38;89.26
61898;BME280;47850;50.274;18.908;2023-03-31T05:26:09;97213.16;;;6.41;89.25
61898;BME280;47850;50.274;18.908;2023-03-31T05:28:38;97205.23;;;6.43;89.11
61898;BME280;47850;50.274;18.908;2023-03-31T05:31:07;97199.58;;;6.46;89.02
61898;BME280;47850;50.274;18.908;2023-03-31T05:33:36;97192.59;;;6.49;89.01
61898;BME280;47850;50.274;18.908;2023-03-31T05:36:10;97191.40;;;6.53;88.79
61898;BME280;47850;50.274;18.908;2023-03-31T05:38:39;97190.86;;;6.57;88.76
61898;BME280;47850;50.274;18.908;2023-03-31T05:41:07;97198.41;;;6.62;88.77
61898;BME280;47850;50.274;18.908;2023-03-31T05:43:37;97199.31;;;6.66;88.44
61898;BME280;47850;50.274;18.908;2023-03-31T05:46:06;97193.48;;;6.71;88.32
61898;BME280;47850;50.274;18.908;2023-03-31T05:48:34;97193.39;;;6.76;88.26
61898;BME280;47850;50.274;18.908;2023-03-31T05:51:04;97190.36;;;6.81;88.14
61898;BME280;47850;50.274;18.908;2023-03-31T05:53:32;97188.87;;;6.85;87.96
61898;BME280;47850;50.274;18.908;2023-03-31T05:56:03;97191.19;;;6.91;87.77
61898;BME280;47850;50.274;18.908;2023-03-31T05:58:34;97191.86;;;6.97;87.57
61898;BME280;47850;50.274;18.908;2023-03-31T06:01:13;97186.28;;;7.02;87.39
61898;BME280;47850;50.274;18.908;2023-03-31T06:03:41;97190.58;;;7.09;87.15
61898;BME280;47850;50.274;18.908;2023-03-31T06:06:09;97188.57;;;7.14;87.00
61898;BME280;47850;50.274;18.908;2023-03-31T06:08:40;97185.46;;;7.19;86.73
61898;BME280;47850;50.274;18.908;2023-03-31T06:11:10;97187.91;;;7.26;86.53
61898;BME280;47850;50.274;18.908;2023-03-31T06:13:38;97192.05;;;7.32;86.33
61898;BME280;47850;50.274;18.908;2023-03-31T06:16:07;97191.43;;;7.38;85.93
61898;BME280;47850;50.274;18.908;2023-03-31T06:18:37;97195.98;;;7.44;85.76
61898;BME280;47850;50.274;18.908;2023-03-31T06:21:06;97197.72;;;7.51;85.39
61898;BME280;47850;50.274;18.908;2023-03-31T06:23:34;97189.63;;;7.59;85.30
61898;BME280;47850;50.274;18.908;2023-03-31T06:26:05;97193.60;;;7.65;84.93
61898;BME280;47850;50.274;18.908;2023-03-31T06:28:35;97186.94;;;7.71;84.67
61898;BME280;47850;50.274;18.908;2023-03-31T06:31:07;97181.08;;;7.78;84.10
61898;BME280;47850;50.274;18.908;2023-03-31T06:33:35;97177.76;;;7.86;83.78
61898;BME280;47850;50.274;18.908;2023-03-31T06:36:04;97174.52;;;7.96;83.65
61898;BME280;47850;50.274;18.908;2023-03-31T06:38:34;97173.92;;;8.06;83.48
61898;BME280;47850;50.274;18.908;2023-03-31T06:41:03;97170.75;;;8.19;83.22
61898;BME280;47850;50.274;18.908;2023-03-31T06:43:32;97168.69;;;8.29;82.69
61898;BME280;47850;50.274;18.908;2023-03-31T06:46:01;97170.02;;;8.38;82.51
61898;BME280;47850;50.274;18.908;2023-03-31T06:48:29;97172.02;;;8.43;81.70
61898;BME280;47850;50.274;18.908;2023-03-31T06:51:01;97172.30;;;8.48;81.52
61898;BME280;47850;50.274;18.908;2023-03-31T06:53:31;97169.72;;;8.54;81.33
61898;BME280;47850;50.274;18.908;2023-03-31T06:55:59;97171.23;;;8.59;80.90
61898;BME280;47850;50.274;18.908;2023-03-31T06:58:28;97168.13;;;8.65;80.78
61898;BME280;47850;50.274;18.908;2023-03-31T07:00:55;97165.27;;;8.72;80.65
61898;BME280;47850;50.274;18.908;2023-03-31T07:03:23;97168.07;;;8.78;80.52
61898;BME280;47850;50.274;18.908;2023-03-31T07:05:53;97167.94;;;8.86;80.69
61898;BME280;47850;50.274;18.908;2023-03-31T07:08:21;97169.89;;;8.94;80.26
61898;BME280;47850;50.274;18.908;2023-03-31T07:10:58;97166.80;;;9.02;79.39
61898;BME280;47850;50.274;18.908;2023-03-31T07:13:28;97160.98;;;9.10;79.43
61898;BME280;47850;50.274;18.908;2023-03-31T07:15:56;97156.11;;;9.18;79.01
61898;BME280;47850;50.274;18.908;2023-03-31T07:18:24;97155.45;;;9.26;79.15
61898;BME280;47850;50.274;18.908;2023-03-31T07:20:52;97156.23;;;9.35;78.51
61898;BME280;47850;50.274;18.908;2023-03-31T07:23:20;97156.42;;;9.43;78.05
61898;BME280;47850;50.274;18.908;2023-03-31T07:25:48;97154.25;;;9.55;78.37
61898;BME280;47850;50.274;18.908;2023-03-31T07:28:16;97157.05;;;9.69;77.93
61898;BME280;47850;50.274;18.908;2023-03-31T07:30:44;97159.25;;;9.79;76.95
61898;BME280;47850;50.274;18.908;2023-03-31T07:33:11;97158.34;;;9.89;76.24
61898;BME280;47850;50.274;18.908;2023-03-31T07:35:40;97155.71;;;10.02;76.07
61898;BME280;47850;50.274;18.908;2023-03-31T07:38:11;97152.12;;;10.14;75.22
61898;BME280;47850;50.274;18.908;2023-03-31T07:40:40;97155.13;;;10.26;74.96
61898;BME280;47850;50.274;18.908;2023-03-31T07:43:10;97147.96;;;10.38;74.34
61898;BME280;47850;50.274;18.908;2023-03-31T07:45:39;97144.66;;;10.51;74.00
61898;BME280;47850;50.274;18.908;2023-03-31T07:48:07;97145.57;;;10.65;73.63
61898;BME280;47850;50.274;18.908;2023-03-31T07:50:35;97147.84;;;10.82;73.30
61898;BME280;47850;50.274;18.908;2023-03-31T07:53:03;97146.02;;;10.95;72.11
61898;BME280;47850;50.274;18.908;2023-03-31T07:55:30;97142.92;;;11.01;71.64
61898;BME280;47850;50.274;18.908;2023-03-31T07:57:58;97145.55;;;11.06;70.99
61898;BME280;47850;50.274;18.908;2023-03-31T08:00:26;97147.73;;;11.17;71.25
61898;BME280;47850;50.274;18.908;2023-03-31T08:02:54;97143.80;;;11.31;70.38
61898;BME280;47850;50.274;18.908;2023-03-31T08:05:22;97146.12;;;11.43;69.60
61898;BME280;47850;50.274;18.908;2023-03-31T08:07:50;97139.45;;;11.53;69.56
61898;BME280;47850;50.274;18.908;2023-03-31T08:10:21;97137.85;;;11.60;68.76
61898;BME280;47850;50.274;18.908;2023-03-31T08:12:50;97120.98;;;11.66;68.87
61898;BME280;47850;50.274;18.908;2023-03-31T08:15:18;97110.45;;;11.82;69.05
61898;BME280;47850;50.274;18.908;2023-03-31T08:17:45;97108.70;;;11.92;67.19
61898;BME280;47850;50.274;18.908;2023-03-31T08:20:13;97107.16;;;11.98;67.27
61898;BME280;47850;50.274;18.908;2023-03-31T08:22:41;97102.67;;;12.10;67.61
61898;BME280;47850;50.274;18.908;2023-03-31T08:25:09;97101.61;;;12.24;67.14
61898;BME280;47850;50.274;18.908;2023-03-31T08:27:39;97091.58;;;12.41;67.56
61898;BME280;47850;50.274;18.908;2023-03-31T08:30:09;97088.25;;;12.54;66.78
61898;BME280;47850;50.274;18.908;2023-03-31T08:32:37;97083.16;;;12.69;65.74
61898;BME280;47850;50.274;18.908;2023-03-31T08:35:06;97083.23;;;12.72;64.89
61898;BME280;47850;50.274;18.908;2023-03-31T08:37:35;97071.57;;;12.72;64.94
61898;BME280;47850;50.274;18.908;2023-03-31T08:40:05;97066.34;;;12.67;65.04
61898;BME280;47850;50.274;18.908;2023-03-31T08:42:48;97065.85;;;12.59;64.77
61898;BME280;47850;50.274;18.908;2023-03-31T08:45:30;97056.98;;;12.53;64.79
61898;BME280;47850;50.274;18.908;2023-03-31T08:48:17;97050.53;;;12.39;64.66
61898;BME280;47850;50.274;18.908;2023-03-31T08:50:52;97048.66;;;12.24;65.39
61898;BME280;47850;50.274;18.908;2023-03-31T08:53:35;97043.98;;;12.14;65.57
61898;BME280;47850;50.274;18.908;2023-03-31T08:56:11;97038.59;;;12.06;65.64
61898;BME280;47850;50.274;18.908;2023-03-31T08:58:44;97039.19;;;11.99;65.57
61898;BME280;47850;50.274;18.908;2023-03-31T09:09:14;97026.38;;;12.01;65.93
61898;BME280;47850;50.274;18.908;2023-03-31T09:11:50;97023.48;;;12.15;66.21
61898;BME280;47850;50.274;18.908;2023-03-31T09:14:30;97020.29;;;12.35;66.25
61898;BME280;47850;50.274;18.908;2023-03-31T09:19:44;97011.51;;;12.57;64.62
61898;BME280;47850;50.274;18.908;2023-03-31T09:22:19;97009.29;;;12.63;64.71
61898;BME280;47850;50.274;18.908;2023-03-31T09:25:19;97004.75;;;12.76;63.44
61898;BME280;47850;50.274;18.908;2023-03-31T09:27:49;97005.73;;;12.86;62.89
61898;BME280;47850;50.274;18.908;2023-03-31T09:30:30;97002.23;;;13.01;63.18
61898;BME280;47850;50.274;18.908;2023-03-31T09:33:14;97002.60;;;13.14;62.77
61898;BME280;47850;50.274;18.908;2023-03-31T09:35:44;96998.88;;;13.29;63.17
61898;BME280;47850;50.274;18.908;2023-03-31T09:38:13;96986.61;;;13.43;61.85
61898;BME280;47850;50.274;18.908;2023-03-31T09:40:42;96984.85;;;13.50;61.37
61898;BME280;47850;50.274;18.908;2023-03-31T09:43:25;96988.20;;;13.60;61.54
61898;BME280;47850;50.274;18.908;2023-03-31T09:45:54;96989.20;;;13.69;61.24
61898;BME280;47850;50.274;18.908;2023-03-31T09:48:25;96986.14;;;13.74;61.00
61898;BME280;47850;50.274;18.908;2023-03-31T09:51:00;96981.69;;;13.85;60.10
61898;BME280;47850;50.274;18.908;2023-03-31T09:56:07;96978.52;;;14.25;60.27
61898;BME280;47850;50.274;18.908;2023-03-31T09:58:42;96981.45;;;14.35;59.84
61898;BME280;47850;50.274;18.908;2023-03-31T10:01:12;96977.73;;;14.38;60.13
61898;BME280;47850;50.274;18.908;2023-03-31T10:03:46;96975.91;;;14.43;59.84
61898;BME280;47850;50.274;18.908;2023-03-31T10:06:16;96972.66;;;14.46;59.69
61898;BME280;47850;50.274;18.908;2023-03-31T10:08:54;96969.14;;;14.55;59.91
61898;BME280;47850;50.274;18.908;2023-03-31T10:11:23;96972.37;;;14.56;59.30
61898;BME280;47850;50.274;18.908;2023-03-31T10:17:12;96959.83;;;14.48;59.29
61898;BME280;47850;50.274;18.908;2023-03-31T10:19:33;96960.05;;;14.47;59.65
61898;BME280;47850;50.274;18.908;2023-03-31T10:22:02;96954.99;;;14.43;59.35
61898;BME280;47850;50.274;18.908;2023-03-31T10:24:37;96960.48;;;14.29;59.81
61898;BME280;47850;50.274;18.908;2023-03-31T10:27:06;96954.77;;;14.25;60.52
61898;BME280;47850;50.274;18.908;2023-03-31T10:29:38;96954.64;;;14.27;60.50
61898;BME280;47850;50.274;18.908;2023-03-31T10:32:23;96950.70;;;14.23;60.66
61898;BME280;47850;50.274;18.908;2023-03-31T10:34:55;96948.89;;;14.16;61.13
61898;BME280;47850;50.274;18.908;2023-03-31T10:37:25;96941.67;;;14.29;60.88
61898;BME280;47850;50.274;18.908;2023-03-31T10:39:57;96931.13;;;14.46;60.59
61898;BME280;47850;50.274;18.908;2023-03-31T10:42:27;96937.14;;;14.59;59.78
61898;BME280;47850;50.274;18.908;2023-03-31T10:47:42;96926.65;;;14.74;59.34
61898;BME280;47850;50.274;18.908;2023-03-31T10:50:14;96933.27;;;14.63;59.08
61898;BME280;47850;50.274;18.908;2023-03-31T10:52:43;96923.54;;;14.56;59.41
61898;BME280;47850;50.274;18.908;2023-03-31T10:55:12;96918.64;;;14.59;59.13
61898;BME280;47850;50.274;18.908;2023-03-31T10:57:43;96917.46;;;14.59;58.90
61898;BME280;47850;50.274;18.908;2023-03-31T11:00:43;96917.73;;;14.62;59.03
61898;BME280;47850;50.274;18.908;2023-03-31T11:08:26;96909.20;;;14.69;59.42
61898;BME280;47850;50.274;18.908;2023-03-31T11:11:10;96903.06;;;14.74;59.33
61898;BME280;47850;50.274;18.908;2023-03-31T11:13:51;96902.31;;;14.71;58.70
61898;BME280;47850;50.274;18.908;2023-03-31T11:24:26;96894.92;;;14.68;58.04
61898;BME280;47850;50.274;18.908;2023-03-31T11:27:21;96882.36;;;14.60;58.52
61898;BME280;47850;50.274;18.908;2023-03-31T11:29:56;96880.75;;;14.57;59.15
61898;BME280;47850;50.274;18.908;2023-03-31T11:40:08;96867.97;;;14.47;58.70
61898;BME280;47850;50.274;18.908;2023-03-31T11:45:25;96859.35;;;14.47;58.62
61898;BME280;47850;50.274;18.908;2023-03-31T11:47:58;96859.75;;;14.56;58.86
61898;BME280;47850;50.274;18.908;2023-03-31T11:50:27;96851.69;;;14.72;58.59
61898;BME280;47850;50.274;18.908;2023-03-31T11:52:59;96847.65;;;14.86;57.66
61898;BME280;47850;50.274;18.908;2023-03-31T11:55:28;96836.69;;;15.00;57.33
61898;BME280;47850;50.274;18.908;2023-03-31T12:00:33;96828.64;;;15.29;56.04
61898;BME280;47850;50.274;18.908;2023-03-31T12:05:38;96818.18;;;15.54;55.85
61898;BME280;47850;50.274;18.908;2023-03-31T12:08:14;96807.92;;;15.62;55.65
61898;BME280;47850;50.274;18.908;2023-03-31T12:10:44;96807.16;;;15.67;55.20
61898;BME280;47850;50.274;18.908;2023-03-31T12:18:33;96790.79;;;15.54;55.05
61898;BME280;47850;50.274;18.908;2023-03-31T12:21:03;96782.38;;;15.50;53.75
61898;BME280;47850;50.274;18.908;2023-03-31T12:23:34;96779.25;;;15.54;53.09
61898;BME280;47850;50.274;18.908;2023-03-31T12:28:35;96766.20;;;15.96;49.94
61898;BME280;47850;50.274;18.908;2023-03-31T12:31:04;96775.83;;;16.15;49.34
61898;BME280;47850;50.274;18.908;2023-03-31T12:33:37;96772.32;;;16.30;48.46
61898;BME280;47850;50.274;18.908;2023-03-31T12:36:16;96762.65;;;16.45;48.29
61898;BME280;47850;50.274;18.908;2023-03-31T12:41:26;96752.35;;;16.25;47.90
61898;BME280;47850;50.274;18.908;2023-03-31T12:44:00;96749.56;;;15.95;48.57
61898;BME280;47850;50.274;18.908;2023-03-31T12:59:31;96733.25;;;15.34;47.84
61898;BME280;47850;50.274;18.908;2023-03-31T13:04:36;96735.11;;;15.31;47.99
61898;BME280;47850;50.274;18.908;2023-03-31T13:07:04;96726.55;;;15.26;47.66
61898;BME280;47850;50.274;18.908;2023-03-31T13:09:40;96719.12;;;15.14;48.38
61898;BME280;47850;50.274;18.908;2023-03-31T13:12:12;96722.52;;;15.02;48.39
61898;BME280;47850;50.274;18.908;2023-03-31T13:14:42;96715.31;;;14.92;49.09
61898;BME280;47850;50.274;18.908;2023-03-31T13:17:26;96715.04;;;14.83;49.77
61898;BME280;47850;50.274;18.908;2023-03-31T13:19:55;96716.95;;;14.75;50.13
61898;BME280;47850;50.274;18.908;2023-03-31T13:22:34;96729.84;;;14.59;48.56
61898;BME280;47850;50.274;18.908;2023-03-31T13:33:10;96712.52;;;14.69;48.03
61898;BME280;47850;50.274;18.908;2023-03-31T13:35:40;96696.91;;;14.69;47.96
61898;BME280;47850;50.274;18.908;2023-03-31T13:40:59;96691.38;;;14.52;49.47
61898;BME280;47850;50.274;18.908;2023-03-31T13:46:06;96689.42;;;14.20;50.50
61898;BME280;47850;50.274;18.908;2023-03-31T13:51:58;96680.52;;;13.95;52.54
61898;BME280;47850;50.274;18.908;2023-03-31T13:57:23;96686.48;;;13.47;56.23
61898;BME280;47850;50.274;18.908;2023-03-31T14:00:06;96674.90;;;13.22;59.40
61898;BME280;47850;50.274;18.908;2023-03-31T14:02:44;96674.85;;;12.98;61.22
61898;BME280;47850;50.274;18.908;2023-03-31T14:05:34;96667.67;;;12.75;63.01
61898;BME280;47850;50.274;18.908;2023-03-31T14:08:09;96666.89;;;12.57;64.55
61898;BME280;47850;50.274;18.908;2023-03-31T14:10:39;96664.19;;;12.43;66.60
61898;BME280;47850;50.274;18.908;2023-03-31T14:13:12;96666.63;;;12.28;67.47
61898;BME280;47850;50.274;18.908;2023-03-31T14:26:05;96641.76;;;11.63;72.48
61898;BME280;47850;50.274;18.908;2023-03-31T14:28:46;96641.75;;;11.54;73.52
61898;BME280;47850;50.274;18.908;2023-03-31T14:31:25;96635.52;;;11.46;74.46
61898;BME280;47850;50.274;18.908;2023-03-31T14:36:48;96632.50;;;11.33;75.87
61898;BME280;47850;50.274;18.908;2023-03-31T14:39:28;96626.36;;;11.26;76.28
61898;BME280;47850;50.274;18.908;2023-03-31T14:42:13;96623.34;;;11.19;77.09
61898;BME280;47850;50.274;18.908;2023-03-31T14:44:42;96615.64;;;11.11;78.04
61898;BME280;47850;50.274;18.908;2023-03-31T14:47:15;96606.02;;;11.05;78.61
61898;BME280;47850;50.274;18.908;2023-03-31T14:49:47;96594.98;;;10.98;79.66
61898;BME280;47850;50.274;18.908;2023-03-31T14:52:16;96588.92;;;10.95;80.20
61898;BME280;47850;50.274;18.908;2023-03-31T14:54:45;96583.09;;;10.92;81.26
61898;BME280;47850;50.274;18.908;2023-03-31T14:57:17;96575.11;;;10.87;81.72
61898;BME280;47850;50.274;18.908;2023-03-31T14:59:48;96574.64;;;10.78;82.24
61898;BME280;47850;50.274;18.908;2023-03-31T15:02:18;96578.36;;;10.69;83.22
61898;BME280;47850;50.274;18.908;2023-03-31T15:04:49;96568.52;;;10.64;84.16
61898;BME280;47850;50.274;18.908;2023-03-31T15:07:18;96572.54;;;10.58;84.27
61898;BME280;47850;50.274;18.908;2023-03-31T15:09:47;96570.16;;;10.52;84.74
61898;BME280;47850;50.274;18.908;2023-03-31T15:12:17;96564.98;;;10.47;85.15
61898;BME280;47850;50.274;18.908;2023-03-31T15:14:47;96559.55;;;10.44;85.55
61898;BME280;47850;50.274;18.908;2023-03-31T15:17:20;96553.77;;;10.43;85.97
61898;BME280;47850;50.274;18.908;2023-03-31T15:19:58;96546.80;;;10.45;86.15
61898;BME280;47850;50.274;18.908;2023-03-31T15:22:27;96537.85;;;10.45;86.05
61898;BME280;47850;50.274;18.908;2023-03-31T15:24:57;96525.45;;;10.47;86.65
61898;BME280;47850;50.274;18.908;2023-03-31T15:30:02;96514.80;;;10.65;86.87
61898;BME280;47850;50.274;18.908;2023-03-31T15:32:33;96511.71;;;10.83;86.39
61898;BME280;47850;50.274;18.908;2023-03-31T15:35:02;96508.83;;;11.06;86.10
61898;BME280;47850;50.274;18.908;2023-03-31T15:37:49;96504.55;;;11.19;85.48
61898;BME280;47850;50.274;18.908;2023-03-31T15:42:52;96494.29;;;11.45;83.59
61898;BME280;47850;50.274;18.908;2023-03-31T15:47:57;96490.87;;;11.73;83.40
61898;BME280;47850;50.274;18.908;2023-03-31T15:50:27;96487.88;;;11.76;83.22
61898;BME280;47850;50.274;18.908;2023-03-31T15:52:55;96483.94;;;11.74;82.80
61898;BME280;47850;50.274;18.908;2023-03-31T15:55:26;96484.17;;;11.68;82.95
61898;BME280;47850;50.274;18.908;2023-03-31T15:57:56;96475.36;;;11.58;82.79
61898;BME280;47850;50.274;18.908;2023-03-31T16:02:52;96467.14;;;11.29;82.59
61898;BME280;47850;50.274;18.908;2023-03-31T16:05:36;96468.39;;;11.15;82.60
61898;BME280;47850;50.274;18.908;2023-03-31T16:08:11;96469.66;;;11.03;82.93
61898;BME280;47850;50.274;18.908;2023-03-31T16:10:40;96470.37;;;10.94;83.23